sensor_id;sensor_type;location;lat;lon;timestamp;pressure;altitude;pressure_sealevel;temperature
61189;BMP280;47054;39.716;2.904;2023-03-12T00:01:20;100132.75;;;22.77
61189;BMP280;47054;39.716;2.904;2023-03-12T00:04:05;100138.16;;;22.77
61189;BMP280;47054;39.716;2.904;2023-03-12T00:06:50;100127.28;;;22.81
61189;BMP280;47054;39.716;2.904;2023-03-12T00:09:37;100129.22;;;22.80
61189;BMP280;47054;39.716;2.904;2023-03-12T00:12:21;100123.41;;;22.82
61189;BMP280;47054;39.716;2.904;2023-03-12T00:15:07;100130.34;;;22.83
61189;BMP280;47054;39.716;2.904;2023-03-12T00:17:52;100129.19;;;22.84
61189;BMP280;47054;39.716;2.904;2023-03-12T00:20:37;100131.88;;;22.84
61189;BMP280;47054;39.716;2.904;2023-03-12T00:23:22;100143.81;;;22.86
61189;BMP280;47054;39.716;2.904;2023-03-12T00:26:10;100141.47;;;22.88
61189;BMP280;47054;39.716;2.904;2023-03-12T00:28:55;100144.56;;;22.87
61189;BMP280;47054;39.716;2.904;2023-03-12T00:31:40;100155.38;;;22.87
61189;BMP280;47054;39.716;2.904;2023-03-12T00:34:25;100145.34;;;22.87
61189;BMP280;47054;39.716;2.904;2023-03-12T00:37:09;100149.19;;;22.90
61189;BMP280;47054;39.716;2.904;2023-03-12T00:39:54;100150.28;;;22.92
61189;BMP280;47054;39.716;2.904;2023-03-12T00:42:39;100144.53;;;22.90
61189;BMP280;47054;39.716;2.904;2023-03-12T00:45:24;100143.72;;;22.93
61189;BMP280;47054;39.716;2.904;2023-03-12T00:48:09;100145.25;;;22.94
61189;BMP280;47054;39.716;2.904;2023-03-12T00:50:53;100142.53;;;22.94
61189;BMP280;47054;39.716;2.904;2023-03-12T00:53:38;100156.44;;;22.96
61189;BMP280;47054;39.716;2.904;2023-03-12T00:56:23;100149.88;;;22.97
61189;BMP280;47054;39.716;2.904;2023-03-12T00:59:07;100147.53;;;22.96
61189;BMP280;47054;39.716;2.904;2023-03-12T01:01:52;100141.47;;;22.88
61189;BMP280;47054;39.716;2.904;2023-03-12T01:04:37;100164.19;;;22.94
61189;BMP280;47054;39.716;2.904;2023-03-12T01:07:22;100165.31;;;22.97
61189;BMP280;47054;39.716;2.904;2023-03-12T01:10:08;100170.31;;;22.98
61189;BMP280;47054;39.716;2.904;2023-03-12T01:12:53;100171.50;;;22.97
61189;BMP280;47054;39.716;2.904;2023-03-12T01:15:37;100176.13;;;22.97
61189;BMP280;47054;39.716;2.904;2023-03-12T01:18:22;100170.78;;;22.93
61189;BMP280;47054;39.716;2.904;2023-03-12T01:21:07;100178.06;;;22.96
61189;BMP280;47054;39.716;2.904;2023-03-12T01:23:52;100181.13;;;22.98
61189;BMP280;47054;39.716;2.904;2023-03-12T01:26:37;100172.25;;;22.98
61189;BMP280;47054;39.716;2.904;2023-03-12T01:29:21;100163.38;;;22.97
61189;BMP280;47054;39.716;2.904;2023-03-12T01:32:06;100173.00;;;22.98
61189;BMP280;47054;39.716;2.904;2023-03-12T01:34:52;100175.72;;;22.98
61189;BMP280;47054;39.716;2.904;2023-03-12T01:37:37;100176.91;;;22.97
61189;BMP280;47054;39.716;2.904;2023-03-12T01:40:22;100146.88;;;22.88
61189;BMP280;47054;39.716;2.904;2023-03-12T01:43:29;100167.59;;;22.98
61189;BMP280;47054;39.716;2.904;2023-03-12T01:49:26;100161.06;;;22.96
61189;BMP280;47054;39.716;2.904;2023-03-12T01:52:16;100159.59;;;22.91
61189;BMP280;47054;39.716;2.904;2023-03-12T01:55:14;100157.59;;;22.95
61189;BMP280;47054;39.716;2.904;2023-03-12T01:58:02;100149.94;;;22.90
61189;BMP280;47054;39.716;2.904;2023-03-12T02:00:47;100161.09;;;22.92
61189;BMP280;47054;39.716;2.904;2023-03-12T02:03:33;100154.94;;;22.92
61189;BMP280;47054;39.716;2.904;2023-03-12T02:06:23;100163.81;;;22.92
61189;BMP280;47054;39.716;2.904;2023-03-12T02:09:10;100150.72;;;22.91
61189;BMP280;47054;39.716;2.904;2023-03-12T02:11:56;100148.06;;;22.87
61189;BMP280;47054;39.716;2.904;2023-03-12T02:14:42;100145.31;;;22.91
61189;BMP280;47054;39.716;2.904;2023-03-12T02:17:27;100139.13;;;22.90
61189;BMP280;47054;39.716;2.904;2023-03-12T02:20:31;100141.06;;;22.90
61189;BMP280;47054;39.716;2.904;2023-03-12T02:26:10;100139.53;;;22.89
61189;BMP280;47054;39.716;2.904;2023-03-12T02:28:59;100135.34;;;22.84
61189;BMP280;47054;39.716;2.904;2023-03-12T02:31:55;100135.72;;;22.86
61189;BMP280;47054;39.716;2.904;2023-03-12T02:34:41;100137.66;;;22.86
61189;BMP280;47054;39.716;2.904;2023-03-12T02:37:28;100121.94;;;22.77
61189;BMP280;47054;39.716;2.904;2023-03-12T02:40:17;100130.34;;;22.83
61189;BMP280;47054;39.716;2.904;2023-03-12T02:43:06;100123.34;;;22.85
61189;BMP280;47054;39.716;2.904;2023-03-12T02:45:51;100130.34;;;22.83
61189;BMP280;47054;39.716;2.904;2023-03-12T02:48:35;100137.28;;;22.84
61189;BMP280;47054;39.716;2.904;2023-03-12T02:51:20;100131.88;;;22.84
61189;BMP280;47054;39.716;2.904;2023-03-12T02:54:06;100129.19;;;22.84
61189;BMP280;47054;39.716;2.904;2023-03-12T02:56:50;100126.16;;;22.78
61189;BMP280;47054;39.716;2.904;2023-03-12T02:59:35;100128.03;;;22.81
61189;BMP280;47054;39.716;2.904;2023-03-12T03:02:22;100126.88;;;22.82
61189;BMP280;47054;39.716;2.904;2023-03-12T03:05:08;100118.41;;;22.80
61189;BMP280;47054;39.716;2.904;2023-03-12T03:07:54;100109.88;;;22.82
61189;BMP280;47054;39.716;2.904;2023-03-12T03:10:39;100118.00;;;22.82
61189;BMP280;47054;39.716;2.904;2023-03-12T03:13:24;100110.31;;;22.80
61189;BMP280;47054;39.716;2.904;2023-03-12T03:16:09;100111.91;;;22.78
61189;BMP280;47054;39.716;2.904;2023-03-12T03:18:55;100117.63;;;22.80
61189;BMP280;47054;39.716;2.904;2023-03-12T03:21:40;100110.00;;;22.74
61189;BMP280;47054;39.716;2.904;2023-03-12T03:24:25;100114.97;;;22.76
61189;BMP280;47054;39.716;2.904;2023-03-12T03:27:09;100118.47;;;22.77
61189;BMP280;47054;39.716;2.904;2023-03-12T03:29:54;100122.72;;;22.78
61189;BMP280;47054;39.716;2.904;2023-03-12T03:32:39;100122.31;;;22.75
61189;BMP280;47054;39.716;2.904;2023-03-12T03:35:23;100121.94;;;22.77
61189;BMP280;47054;39.716;2.904;2023-03-12T03:38:08;100122.31;;;22.75
61189;BMP280;47054;39.716;2.904;2023-03-12T03:40:54;100123.50;;;22.74
61189;BMP280;47054;39.716;2.904;2023-03-12T03:43:38;100125.47;;;22.74
61189;BMP280;47054;39.716;2.904;2023-03-12T03:46:24;100123.09;;;22.76
61189;BMP280;47054;39.716;2.904;2023-03-12T03:49:16;100134.31;;;22.74
61189;BMP280;47054;39.716;2.904;2023-03-12T03:52:01;100128.97;;;22.71
61189;BMP280;47054;39.716;2.904;2023-03-12T03:54:51;100142.44;;;22.74
61189;BMP280;47054;39.716;2.904;2023-03-12T03:57:37;100133.56;;;22.74
61189;BMP280;47054;39.716;2.904;2023-03-12T04:00:23;100131.63;;;22.74
61189;BMP280;47054;39.716;2.904;2023-03-12T04:03:10;100122.75;;;22.74
61189;BMP280;47054;39.716;2.904;2023-03-12T04:05:59;100127.41;;;22.73
61189;BMP280;47054;39.716;2.904;2023-03-12T04:08:45;100131.66;;;22.71
61189;BMP280;47054;39.716;2.904;2023-03-12T04:11:32;100133.22;;;22.68
61189;BMP280;47054;39.716;2.904;2023-03-12T04:14:17;100138.63;;;22.68
61189;BMP280;47054;39.716;2.904;2023-03-12T04:17:03;100131.31;;;22.69
61189;BMP280;47054;39.716;2.904;2023-03-12T04:19:48;100148.63;;;22.71
61189;BMP280;47054;39.716;2.904;2023-03-12T04:22:34;100155.56;;;22.72
61189;BMP280;47054;39.716;2.904;2023-03-12T04:25:19;100167.97;;;22.70
61189;BMP280;47054;39.716;2.904;2023-03-12T04:28:04;100158.00;;;22.67
61189;BMP280;47054;39.716;2.904;2023-03-12T04:31:02;100145.53;;;22.73
61189;BMP280;47054;39.716;2.904;2023-03-12T04:33:53;100156.41;;;22.69
61189;BMP280;47054;39.716;2.904;2023-03-12T04:36:41;100147.19;;;22.67
61189;BMP280;47054;39.716;2.904;2023-03-12T04:39:26;100162.97;;;22.68
61189;BMP280;47054;39.716;2.904;2023-03-12T04:42:11;100165.31;;;22.66
61189;BMP280;47054;39.716;2.904;2023-03-12T04:44:57;100164.16;;;22.64
61189;BMP280;47054;39.716;2.904;2023-03-12T04:47:43;100186.50;;;22.68
61189;BMP280;47054;39.716;2.904;2023-03-12T04:50:29;100189.66;;;22.66
61189;BMP280;47054;39.716;2.904;2023-03-12T04:53:15;100216.25;;;22.68
61189;BMP280;47054;39.716;2.904;2023-03-12T04:56:01;100208.13;;;22.68
61189;BMP280;47054;39.716;2.904;2023-03-12T04:58:47;100215.47;;;22.67
61189;BMP280;47054;39.716;2.904;2023-03-12T05:01:34;100215.91;;;22.66
61189;BMP280;47054;39.716;2.904;2023-03-12T05:04:23;100224.81;;;22.63
61189;BMP280;47054;39.716;2.904;2023-03-12T05:07:09;100237.13;;;22.64
61189;BMP280;47054;39.716;2.904;2023-03-12T05:09:55;100236.41;;;22.63
61189;BMP280;47054;39.716;2.904;2023-03-12T05:12:40;100237.53;;;22.66
61189;BMP280;47054;39.716;2.904;2023-03-12T05:15:26;100239.44;;;22.65
61189;BMP280;47054;39.716;2.904;2023-03-12T05:18:10;100238.31;;;22.66
61189;BMP280;47054;39.716;2.904;2023-03-12T05:21:05;100247.19;;;22.67
61189;BMP280;47054;39.716;2.904;2023-03-12T05:23:50;100238.31;;;22.66
61189;BMP280;47054;39.716;2.904;2023-03-12T05:26:35;100254.91;;;22.65
61189;BMP280;47054;39.716;2.904;2023-03-12T05:29:26;100247.22;;;22.63
61189;BMP280;47054;39.716;2.904;2023-03-12T05:32:12;100253.38;;;22.60
61189;BMP280;47054;39.716;2.904;2023-03-12T05:34:58;100268.06;;;22.63
61189;BMP280;47054;39.716;2.904;2023-03-12T05:37:43;100268.06;;;22.63
61189;BMP280;47054;39.716;2.904;2023-03-12T05:40:29;100269.56;;;22.64
61189;BMP280;47054;39.716;2.904;2023-03-12T05:43:14;100263.03;;;22.61
61189;BMP280;47054;39.716;2.904;2023-03-12T05:46:01;100265.41;;;22.59
61189;BMP280;47054;39.716;2.904;2023-03-12T05:48:47;100263.84;;;22.58
61189;BMP280;47054;39.716;2.904;2023-03-12T05:51:33;100263.06;;;22.58
61189;BMP280;47054;39.716;2.904;2023-03-12T05:54:18;100275.44;;;22.59
61189;BMP280;47054;39.716;2.904;2023-03-12T05:57:05;100266.19;;;22.60
61189;BMP280;47054;39.716;2.904;2023-03-12T05:59:50;100278.47;;;22.61
61189;BMP280;47054;39.716;2.904;2023-03-12T06:02:35;100284.31;;;22.59
61189;BMP280;47054;39.716;2.904;2023-03-12T06:05:20;100292.00;;;22.61
61189;BMP280;47054;39.716;2.904;2023-03-12T06:08:05;100284.69;;;22.58
61189;BMP280;47054;39.716;2.904;2023-03-12T06:10:51;100297.41;;;22.61
61189;BMP280;47054;39.716;2.904;2023-03-12T06:13:39;100302.03;;;22.60
61189;BMP280;47054;39.716;2.904;2023-03-12T06:16:26;100305.16;;;22.59
61189;BMP280;47054;39.716;2.904;2023-03-12T06:19:11;100313.28;;;22.59
61189;BMP280;47054;39.716;2.904;2023-03-12T06:21:58;100318.25;;;22.60
61189;BMP280;47054;39.716;2.904;2023-03-12T06:24:45;100311.72;;;22.58
61189;BMP280;47054;39.716;2.904;2023-03-12T06:27:33;100315.97;;;22.59
61189;BMP280;47054;39.716;2.904;2023-03-12T06:30:17;100309.06;;;22.54
61189;BMP280;47054;39.716;2.904;2023-03-12T06:33:02;100324.09;;;22.59
61189;BMP280;47054;39.716;2.904;2023-03-12T06:35:48;100327.16;;;22.57
61189;BMP280;47054;39.716;2.904;2023-03-12T06:38:33;100314.88;;;22.53
61189;BMP280;47054;39.716;2.904;2023-03-12T06:41:19;100326.78;;;22.59
61189;BMP280;47054;39.716;2.904;2023-03-12T06:44:03;100329.88;;;22.57
61189;BMP280;47054;39.716;2.904;2023-03-12T06:46:49;100332.59;;;22.54
61189;BMP280;47054;39.716;2.904;2023-03-12T06:49:35;100345.31;;;22.57
61189;BMP280;47054;39.716;2.904;2023-03-12T06:52:21;100349.97;;;22.56
61189;BMP280;47054;39.716;2.904;2023-03-12T06:55:05;100348.00;;;22.57
61189;BMP280;47054;39.716;2.904;2023-03-12T06:57:50;100353.81;;;22.59
61189;BMP280;47054;39.716;2.904;2023-03-12T07:00:34;100366.91;;;22.60
61189;BMP280;47054;39.716;2.904;2023-03-12T07:03:20;100363.47;;;22.60
61189;BMP280;47054;39.716;2.904;2023-03-12T07:06:12;100367.66;;;22.61
61189;BMP280;47054;39.716;2.904;2023-03-12T07:08:56;100366.56;;;22.58
61189;BMP280;47054;39.716;2.904;2023-03-12T07:11:41;100371.19;;;22.58
61189;BMP280;47054;39.716;2.904;2023-03-12T07:14:30;100350.81;;;22.50
61189;BMP280;47054;39.716;2.904;2023-03-12T07:17:15;100373.09;;;22.57
61189;BMP280;47054;39.716;2.904;2023-03-12T07:20:00;100377.69;;;22.60
61189;BMP280;47054;39.716;2.904;2023-03-12T07:22:44;100360.03;;;22.56
61189;BMP280;47054;39.716;2.904;2023-03-12T07:25:29;100366.56;;;22.58
61189;BMP280;47054;39.716;2.904;2023-03-12T07:28:15;100373.88;;;22.58
61189;BMP280;47054;39.716;2.904;2023-03-12T07:31:01;100381.22;;;22.57
61189;BMP280;47054;39.716;2.904;2023-03-12T07:33:46;100377.38;;;22.55
61189;BMP280;47054;39.716;2.904;2023-03-12T07:36:31;100404.00;;;22.60
61189;BMP280;47054;39.716;2.904;2023-03-12T07:39:17;100408.97;;;22.61
61189;BMP280;47054;39.716;2.904;2023-03-12T07:42:02;100413.63;;;22.61
61189;BMP280;47054;39.716;2.904;2023-03-12T07:44:50;100409.75;;;22.62
61189;BMP280;47054;39.716;2.904;2023-03-12T07:47:34;100411.72;;;22.58
61189;BMP280;47054;39.716;2.904;2023-03-12T07:50:19;100416.34;;;22.57
61189;BMP280;47054;39.716;2.904;2023-03-12T07:53:04;100409.03;;;22.58
61189;BMP280;47054;39.716;2.904;2023-03-12T07:55:49;100415.53;;;22.60
61189;BMP280;47054;39.716;2.904;2023-03-12T07:58:34;100401.31;;;22.56
61189;BMP280;47054;39.716;2.904;2023-03-12T08:01:19;100405.16;;;22.59
61189;BMP280;47054;39.716;2.904;2023-03-12T08:04:05;100415.97;;;22.59
61189;BMP280;47054;39.716;2.904;2023-03-12T08:06:49;100407.84;;;22.62
61189;BMP280;47054;39.716;2.904;2023-03-12T08:09:34;100420.56;;;22.62
61189;BMP280;47054;39.716;2.904;2023-03-12T08:12:22;100418.25;;;22.60
61189;BMP280;47054;39.716;2.904;2023-03-12T08:15:06;100429.06;;;22.60
61189;BMP280;47054;39.716;2.904;2023-03-12T08:17:55;100420.56;;;22.62
61189;BMP280;47054;39.716;2.904;2023-03-12T08:20:40;100410.94;;;22.57
61189;BMP280;47054;39.716;2.904;2023-03-12T08:23:25;100403.63;;;22.58
61189;BMP280;47054;39.716;2.904;2023-03-12T08:26:10;100413.28;;;22.59
61189;BMP280;47054;39.716;2.904;2023-03-12T08:28:55;100415.16;;;22.62
61189;BMP280;47054;39.716;2.904;2023-03-12T08:31:40;100413.63;;;22.61
61189;BMP280;47054;39.716;2.904;2023-03-12T08:34:25;100420.59;;;22.58
61189;BMP280;47054;39.716;2.904;2023-03-12T08:37:10;100417.91;;;22.58
61189;BMP280;47054;39.716;2.904;2023-03-12T08:39:54;100426.78;;;22.59
61189;BMP280;47054;39.716;2.904;2023-03-12T08:42:40;100430.59;;;22.61
61189;BMP280;47054;39.716;2.904;2023-03-12T08:45:24;100444.13;;;22.61
61189;BMP280;47054;39.716;2.904;2023-03-12T08:48:09;100439.16;;;22.60
61189;BMP280;47054;39.716;2.904;2023-03-12T08:50:59;100443.38;;;22.57
61189;BMP280;47054;39.716;2.904;2023-03-12T08:53:44;100436.03;;;22.58
61189;BMP280;47054;39.716;2.904;2023-03-12T08:56:28;100454.16;;;22.61
61189;BMP280;47054;39.716;2.904;2023-03-12T08:59:12;100449.97;;;22.60
61189;BMP280;47054;39.716;2.904;2023-03-12T09:01:57;100456.09;;;22.60
61189;BMP280;47054;39.716;2.904;2023-03-12T09:04:41;100463.84;;;22.58
61189;BMP280;47054;39.716;2.904;2023-03-12T09:07:26;100463.47;;;22.60
61189;BMP280;47054;39.716;2.904;2023-03-12T09:10:11;100455.38;;;22.60
61189;BMP280;47054;39.716;2.904;2023-03-12T09:12:55;100459.56;;;22.61
61189;BMP280;47054;39.716;2.904;2023-03-12T09:15:40;100466.88;;;22.60
61189;BMP280;47054;39.716;2.904;2023-03-12T09:18:25;100456.88;;;22.57
61189;BMP280;47054;39.716;2.904;2023-03-12T09:21:10;100481.19;;;22.61
61189;BMP280;47054;39.716;2.904;2023-03-12T09:23:55;100485.81;;;22.60
61189;BMP280;47054;39.716;2.904;2023-03-12T09:26:39;100478.91;;;22.59
61189;BMP280;47054;39.716;2.904;2023-03-12T09:29:24;100479.69;;;22.60
61189;BMP280;47054;39.716;2.904;2023-03-12T09:32:09;100487.78;;;22.60
61189;BMP280;47054;39.716;2.904;2023-03-12T09:34:53;100489.72;;;22.59
61189;BMP280;47054;39.716;2.904;2023-03-12T09:37:38;100486.63;;;22.57
61189;BMP280;47054;39.716;2.904;2023-03-12T09:40:25;100487.38;;;22.61
61189;BMP280;47054;39.716;2.904;2023-03-12T09:43:32;100495.47;;;22.61
61189;BMP280;47054;39.716;2.904;2023-03-12T09:46:34;100486.66;;;22.50
61189;BMP280;47054;39.716;2.904;2023-03-12T09:49:34;100502.03;;;22.60
61189;BMP280;47054;39.716;2.904;2023-03-12T09:52:33;100494.34;;;22.59
61189;BMP280;47054;39.716;2.904;2023-03-12T09:55:20;100495.50;;;22.58
61189;BMP280;47054;39.716;2.904;2023-03-12T09:58:21;100489.75;;;22.56
61189;BMP280;47054;39.716;2.904;2023-03-12T10:07:42;100504.41;;;22.55
61189;BMP280;47054;39.716;2.904;2023-03-12T10:10:44;100495.91;;;22.56
61189;BMP280;47054;39.716;2.904;2023-03-12T10:17:04;100497.84;;;22.56
61189;BMP280;47054;39.716;2.904;2023-03-12T10:20:21;100495.91;;;22.56
61189;BMP280;47054;39.716;2.904;2023-03-12T10:26:21;100497.84;;;22.56
61189;BMP280;47054;39.716;2.904;2023-03-12T10:34:59;100493.22;;;22.53
61189;BMP280;47054;39.716;2.904;2023-03-12T10:38:01;100487.78;;;22.56
61189;BMP280;47054;39.716;2.904;2023-03-12T10:40:47;100486.63;;;22.54
61189;BMP280;47054;39.716;2.904;2023-03-12T10:43:33;100488.53;;;22.57
61189;BMP280;47054;39.716;2.904;2023-03-12T10:49:35;100490.53;;;22.53
61189;BMP280;47054;39.716;2.904;2023-03-12T10:52:21;100495.91;;;22.56
61189;BMP280;47054;39.716;2.904;2023-03-12T10:55:25;100490.88;;;22.58
61189;BMP280;47054;39.716;2.904;2023-03-12T10:58:40;100494.72;;;22.57
61189;BMP280;47054;39.716;2.904;2023-03-12T11:01:30;100502.84;;;22.57
61189;BMP280;47054;39.716;2.904;2023-03-12T11:04:23;100500.91;;;22.58
61189;BMP280;47054;39.716;2.904;2023-03-12T11:10:23;100499.75;;;22.59
61189;BMP280;47054;39.716;2.904;2023-03-12T11:13:25;100504.72;;;22.60
61189;BMP280;47054;39.716;2.904;2023-03-12T11:19:03;100502.81;;;22.61
61189;BMP280;47054;39.716;2.904;2023-03-12T11:22:31;100500.88;;;22.61
61189;BMP280;47054;39.716;2.904;2023-03-12T11:25:25;100495.50;;;22.58
61189;BMP280;47054;39.716;2.904;2023-03-12T11:28:19;100503.56;;;22.65
61189;BMP280;47054;39.716;2.904;2023-03-12T11:31:15;100507.84;;;22.62
61189;BMP280;47054;39.716;2.904;2023-03-12T11:34:12;100517.47;;;22.67
61189;BMP280;47054;39.716;2.904;2023-03-12T11:37:18;100520.91;;;22.67
61189;BMP280;47054;39.716;2.904;2023-03-12T11:46:48;100515.50;;;22.71
61189;BMP280;47054;39.716;2.904;2023-03-12T11:55:51;100520.91;;;22.64
61189;BMP280;47054;39.716;2.904;2023-03-12T12:06:01;100520.91;;;22.71
61189;BMP280;47054;39.716;2.904;2023-03-12T12:08:53;100522.44;;;22.72
61189;BMP280;47054;39.716;2.904;2023-03-12T12:23:17;100528.16;;;22.81
61189;BMP280;47054;39.716;2.904;2023-03-12T12:26:09;100524.72;;;22.81
61189;BMP280;47054;39.716;2.904;2023-03-12T12:29:09;100525.06;;;22.83
61189;BMP280;47054;39.716;2.904;2023-03-12T12:31:57;100532.78;;;22.84
61189;BMP280;47054;39.716;2.904;2023-03-12T12:38:04;100528.91;;;22.85
61189;BMP280;47054;39.716;2.904;2023-03-12T12:40:55;100530.47;;;22.86
61189;BMP280;47054;39.716;2.904;2023-03-12T12:43:45;100531.59;;;22.85
61189;BMP280;47054;39.716;2.904;2023-03-12T12:46:35;100533.16;;;22.86
61189;BMP280;47054;39.716;2.904;2023-03-12T12:52:19;100533.13;;;22.90
61189;BMP280;47054;39.716;2.904;2023-03-12T12:55:17;100529.63;;;22.93
61189;BMP280;47054;39.716;2.904;2023-03-12T12:58:19;100525.38;;;22.92
61189;BMP280;47054;39.716;2.904;2023-03-12T13:01:06;100528.06;;;22.92
61189;BMP280;47054;39.716;2.904;2023-03-12T13:04:00;100538.53;;;22.93
61189;BMP280;47054;39.716;2.904;2023-03-12T13:12:46;100524.19;;;22.96
61189;BMP280;47054;39.716;2.904;2023-03-12T13:15:37;100524.97;;;22.97
61189;BMP280;47054;39.716;2.904;2023-03-12T13:18:26;100535.41;;;22.95
61189;BMP280;47054;39.716;2.904;2023-03-12T13:21:28;100538.50;;;22.97
61189;BMP280;47054;39.716;2.904;2023-03-12T13:24:31;100526.50;;;22.98
61189;BMP280;47054;39.716;2.904;2023-03-12T13:27:28;100529.16;;;23.01
61189;BMP280;47054;39.716;2.904;2023-03-12T13:30:45;100535.38;;;22.98
61189;BMP280;47054;39.716;2.904;2023-03-12T13:33:43;100528.41;;;23.01
61189;BMP280;47054;39.716;2.904;2023-03-12T13:36:29;100514.22;;;22.90
61189;BMP280;47054;39.716;2.904;2023-03-12T13:39:27;100520.69;;;22.99
61189;BMP280;47054;39.716;2.904;2023-03-12T13:42:26;100516.81;;;23.00
61189;BMP280;47054;39.716;2.904;2023-03-12T13:45:26;100510.28;;;22.98
61189;BMP280;47054;39.716;2.904;2023-03-12T13:48:17;100516.00;;;23.03
61189;BMP280;47054;39.716;2.904;2023-03-12T13:51:14;100511.38;;;23.04
61189;BMP280;47054;39.716;2.904;2023-03-12T13:54:01;100515.25;;;23.03
61189;BMP280;47054;39.716;2.904;2023-03-12T13:57:10;100515.22;;;23.06
61189;BMP280;47054;39.716;2.904;2023-03-12T13:59:56;100522.97;;;23.04
61189;BMP280;47054;39.716;2.904;2023-03-12T14:02:54;100514.47;;;23.02
61189;BMP280;47054;39.716;2.904;2023-03-12T14:12:13;100510.19;;;23.05
61189;BMP280;47054;39.716;2.904;2023-03-12T14:18:18;100517.13;;;23.06
61189;BMP280;47054;39.716;2.904;2023-03-12T14:21:09;100515.63;;;23.08
61189;BMP280;47054;39.716;2.904;2023-03-12T14:23:57;100501.69;;;23.06
61189;BMP280;47054;39.716;2.904;2023-03-12T14:26:44;100505.13;;;23.10
61189;BMP280;47054;39.716;2.904;2023-03-12T14:32:23;100498.13;;;23.13
61189;BMP280;47054;39.716;2.904;2023-03-12T14:35:22;100497.38;;;23.12
61189;BMP280;47054;39.716;2.904;2023-03-12T14:38:21;100500.84;;;23.13
61189;BMP280;47054;39.716;2.904;2023-03-12T14:41:17;100500.84;;;23.13
61189;BMP280;47054;39.716;2.904;2023-03-12T14:44:20;100508.16;;;23.16
61189;BMP280;47054;39.716;2.904;2023-03-12T14:47:10;100507.03;;;23.13
61189;BMP280;47054;39.716;2.904;2023-03-12T14:50:00;100506.66;;;23.15
61189;BMP280;47054;39.716;2.904;2023-03-12T14:52:45;100493.94;;;23.12
61189;BMP280;47054;39.716;2.904;2023-03-12T14:55:30;100502.03;;;23.15
61189;BMP280;47054;39.716;2.904;2023-03-12T14:58:17;100507.00;;;23.17
61189;BMP280;47054;39.716;2.904;2023-03-12T15:01:05;100504.69;;;23.19
61189;BMP280;47054;39.716;2.904;2023-03-12T15:04:02;100501.56;;;23.20
61189;BMP280;47054;39.716;2.904;2023-03-12T15:06:51;100493.88;;;23.19
61189;BMP280;47054;39.716;2.904;2023-03-12T15:09:41;100493.88;;;23.19
61189;BMP280;47054;39.716;2.904;2023-03-12T15:12:34;100496.91;;;23.21
61189;BMP280;47054;39.716;2.904;2023-03-12T15:15:41;100487.66;;;23.22
61189;BMP280;47054;39.716;2.904;2023-03-12T15:18:31;100495.78;;;23.22
61189;BMP280;47054;39.716;2.904;2023-03-12T15:21:16;100494.22;;;23.21
61189;BMP280;47054;39.716;2.904;2023-03-12T15:24:01;100491.91;;;23.19
61189;BMP280;47054;39.716;2.904;2023-03-12T15:26:47;100484.53;;;23.20
61189;BMP280;47054;39.716;2.904;2023-03-12T15:29:32;100488.44;;;23.22
61189;BMP280;47054;39.716;2.904;2023-03-12T15:32:19;100490.34;;;23.22
61189;BMP280;47054;39.716;2.904;2023-03-12T15:35:11;100491.47;;;23.24
61189;BMP280;47054;39.716;2.904;2023-03-12T15:37:57;100487.22;;;23.23
61189;BMP280;47054;39.716;2.904;2023-03-12T15:40:48;100478.31;;;23.26
61189;BMP280;47054;39.716;2.904;2023-03-12T15:43:33;100475.66;;;23.23
61189;BMP280;47054;39.716;2.904;2023-03-12T15:46:18;100471.81;;;23.17
61189;BMP280;47054;39.716;2.904;2023-03-12T15:49:03;100474.91;;;23.22
61189;BMP280;47054;39.716;2.904;2023-03-12T15:52:05;100484.09;;;23.28
61189;BMP280;47054;39.716;2.904;2023-03-12T15:57:54;100477.56;;;23.26
61189;BMP280;47054;39.716;2.904;2023-03-12T16:03:27;100481.78;;;23.27
61189;BMP280;47054;39.716;2.904;2023-03-12T16:06:13;100476.03;;;23.25
61189;BMP280;47054;39.716;2.904;2023-03-12T16:09:00;100469.03;;;23.27
61189;BMP280;47054;39.716;2.904;2023-03-12T16:11:47;100481.78;;;23.27
61189;BMP280;47054;39.716;2.904;2023-03-12T16:14:32;100481.38;;;23.28
61189;BMP280;47054;39.716;2.904;2023-03-12T16:17:21;100470.94;;;23.30
61189;BMP280;47054;39.716;2.904;2023-03-12T16:20:11;100472.50;;;23.28
61189;BMP280;47054;39.716;2.904;2023-03-12T16:22:57;100487.91;;;23.31
61189;BMP280;47054;39.716;2.904;2023-03-12T16:26:01;100484.84;;;23.32
61189;BMP280;47054;39.716;2.904;2023-03-12T16:28:47;100481.34;;;23.32
61189;BMP280;47054;39.716;2.904;2023-03-12T16:31:32;100473.28;;;23.28
61189;BMP280;47054;39.716;2.904;2023-03-12T16:34:16;100497.22;;;23.30
61189;BMP280;47054;39.716;2.904;2023-03-12T16:37:01;100491.41;;;23.31
61189;BMP280;47054;39.716;2.904;2023-03-12T16:39:46;100491.78;;;23.33
61189;BMP280;47054;39.716;2.904;2023-03-12T16:42:32;100480.59;;;23.31
61189;BMP280;47054;39.716;2.904;2023-03-12T16:45:20;100489.06;;;23.33
61189;BMP280;47054;39.716;2.904;2023-03-12T16:48:05;100492.59;;;23.30
61189;BMP280;47054;39.716;2.904;2023-03-12T16:50:55;100498.72;;;23.34
61189;BMP280;47054;39.716;2.904;2023-03-12T16:53:40;100507.59;;;23.35
61189;BMP280;47054;39.716;2.904;2023-03-12T16:56:26;100501.41;;;23.34
61189;BMP280;47054;39.716;2.904;2023-03-12T16:59:32;100506.81;;;23.34
61189;BMP280;47054;39.716;2.904;2023-03-12T17:02:21;100511.09;;;23.35
61189;BMP280;47054;39.716;2.904;2023-03-12T17:05:06;100513.00;;;23.35
61189;BMP280;47054;39.716;2.904;2023-03-12T17:07:50;100500.72;;;23.27
61189;BMP280;47054;39.716;2.904;2023-03-12T17:10:35;100513.00;;;23.35
61189;BMP280;47054;39.716;2.904;2023-03-12T17:13:26;100511.50;;;23.34
61189;BMP280;47054;39.716;2.904;2023-03-12T17:16:12;100524.22;;;23.37
61189;BMP280;47054;39.716;2.904;2023-03-12T17:18:57;100522.28;;;23.37
61189;BMP280;47054;39.716;2.904;2023-03-12T17:21:41;100523.44;;;23.36
61189;BMP280;47054;39.716;2.904;2023-03-12T17:24:27;100525.72;;;23.38
61189;BMP280;47054;39.716;2.904;2023-03-12T17:27:15;100528.06;;;23.39
61189;BMP280;47054;39.716;2.904;2023-03-12T17:29:59;100516.88;;;23.37
61189;BMP280;47054;39.716;2.904;2023-03-12T17:32:44;100524.22;;;23.37